sensor_id;sensor_type;location;lat;lon;timestamp;pressure;altitude;pressure_sealevel;temperature;humidity
71057;BME280;58380;48.312;9.246;2023-04-26T07:45:14;93571.31;;;5.19;90.73
71057;BME280;58380;48.312;9.246;2023-04-26T07:47:40;93562.78;;;5.24;90.70
71057;BME280;58380;48.312;9.246;2023-04-26T07:50:05;93567.56;;;5.38;94.42
71057;BME280;58380;48.312;9.246;2023-04-26T07:52:31;93564.28;;;5.55;90.47
71057;BME280;58380;48.312;9.246;2023-04-26T07:54:57;93547.31;;;5.46;87.52
71057;BME280;58380;48.312;9.246;2023-04-26T07:57:23;93554.47;;;5.74;91.58
71057;BME280;58380;48.312;9.246;2023-04-26T07:59:48;93530.31;;;5.83;87.97
71057;BME280;58380;48.312;9.246;2023-04-26T08:02:14;93542.47;;;6.13;85.94
71057;BME280;58380;48.312;9.246;2023-04-26T08:04:46;93525.84;;;6.19;84.58
71057;BME280;58380;48.312;9.246;2023-04-26T08:07:14;93557.44;;;6.41;84.68
71057;BME280;58380;48.312;9.246;2023-04-26T08:09:39;93551.59;;;6.51;88.24
71057;BME280;58380;48.312;9.246;2023-04-26T08:12:05;93552.00;;;6.88;88.61
71057;BME280;58380;48.312;9.246;2023-04-26T08:14:31;93519.06;;;6.81;80.42
71057;BME280;58380;48.312;9.246;2023-04-26T08:16:58;93518.41;;;6.74;79.23
71057;BME280;58380;48.312;9.246;2023-04-26T08:19:23;93538.88;;;6.88;83.14
71057;BME280;58380;48.312;9.246;2023-04-26T08:21:50;93545.34;;;7.15;83.84
71057;BME280;58380;48.312;9.246;2023-04-26T08:24:16;93538.66;;;7.41;76.25
71057;BME280;58380;48.312;9.246;2023-04-26T08:26:41;93548.09;;;7.59;79.26
71057;BME280;58380;48.312;9.246;2023-04-26T08:29:07;93541.03;;;7.59;73.66
71057;BME280;58380;48.312;9.246;2023-04-26T08:31:32;93564.03;;;7.52;77.54
71057;BME280;58380;48.312;9.246;2023-04-26T08:33:58;93556.09;;;7.47;76.12
71057;BME280;58380;48.312;9.246;2023-04-26T08:36:23;93550.63;;;7.31;78.20
71057;BME280;58380;48.312;9.246;2023-04-26T08:38:49;93541.38;;;7.12;79.26
71057;BME280;58380;48.312;9.246;2023-04-26T08:41:21;93543.34;;;7.05;76.77
71057;BME280;58380;48.312;9.246;2023-04-26T08:43:48;93568.47;;;7.01;74.96
71057;BME280;58380;48.312;9.246;2023-04-26T08:46:17;93541.78;;;6.75;76.41
71057;BME280;58380;48.312;9.246;2023-04-26T08:48:47;93549.66;;;6.75;75.28
71057;BME280;58380;48.312;9.246;2023-04-26T08:51:19;93569.47;;;6.83;75.22
71057;BME280;58380;48.312;9.246;2023-04-26T08:53:46;93561.28;;;6.79;72.32
71057;BME280;58380;48.312;9.246;2023-04-26T08:56:16;93559.81;;;6.55;76.47
71057;BME280;58380;48.312;9.246;2023-04-26T08:58:42;93553.66;;;6.49;76.68
71057;BME280;58380;48.312;9.246;2023-04-26T09:01:08;93559.59;;;6.44;77.79
71057;BME280;58380;48.312;9.246;2023-04-26T09:03:34;93567.38;;;6.68;81.46
71057;BME280;58380;48.312;9.246;2023-04-26T09:06:00;93566.75;;;6.78;79.38
71057;BME280;58380;48.312;9.246;2023-04-26T09:08:27;93567.03;;;6.93;79.37
71057;BME280;58380;48.312;9.246;2023-04-26T09:10:53;93582.56;;;7.11;79.23
71057;BME280;58380;48.312;9.246;2023-04-26T09:13:18;93559.50;;;7.13;79.31
71057;BME280;58380;48.312;9.246;2023-04-26T09:15:46;93574.06;;;7.38;75.65
71057;BME280;58380;48.312;9.246;2023-04-26T09:18:20;93566.44;;;7.37;78.21
71057;BME280;58380;48.312;9.246;2023-04-26T09:21:06;93547.09;;;7.43;75.96
71057;BME280;58380;48.312;9.246;2023-04-26T09:23:33;93560.94;;;7.55;75.87
71057;BME280;58380;48.312;9.246;2023-04-26T09:26:18;93578.44;;;7.66;76.88
71057;BME280;58380;48.312;9.246;2023-04-26T09:28:44;93568.53;;;7.73;76.13
71057;BME280;58380;48.312;9.246;2023-04-26T09:31:21;93533.09;;;7.54;74.67
71057;BME280;58380;48.312;9.246;2023-04-26T09:34:03;93563.19;;;7.85;74.43
71057;BME280;58380;48.312;9.246;2023-04-26T09:36:28;93564.88;;;7.91;72.00
71057;BME280;58380;48.312;9.246;2023-04-26T09:38:54;93536.84;;;7.80;70.92
71057;BME280;58380;48.312;9.246;2023-04-26T09:41:19;93540.72;;;7.94;72.64
71057;BME280;58380;48.312;9.246;2023-04-26T09:43:45;93553.63;;;8.18;71.90
71057;BME280;58380;48.312;9.246;2023-04-26T09:46:21;93542.75;;;8.09;70.03
71057;BME280;58380;48.312;9.246;2023-04-26T09:48:59;93551.25;;;8.16;70.88
71057;BME280;58380;48.312;9.246;2023-04-26T09:51:25;93556.03;;;8.19;74.64
71057;BME280;58380;48.312;9.246;2023-04-26T09:53:51;93534.78;;;8.26;74.70
71057;BME280;58380;48.312;9.246;2023-04-26T09:56:20;93551.47;;;8.54;72.77
71057;BME280;58380;48.312;9.246;2023-04-26T10:01:13;93533.88;;;8.15;70.59
71057;BME280;58380;48.312;9.246;2023-04-26T10:03:40;93555.34;;;8.07;66.18
71057;BME280;58380;48.312;9.246;2023-04-26T10:06:06;93555.03;;;7.65;66.25
71057;BME280;58380;48.312;9.246;2023-04-26T10:08:32;93544.47;;;7.43;67.18
71057;BME280;58380;48.312;9.246;2023-04-26T10:10:59;93555.53;;;7.62;72.04
71057;BME280;58380;48.312;9.246;2023-04-26T10:13:26;93538.38;;;7.76;70.82
71057;BME280;58380;48.312;9.246;2023-04-26T10:15:53;93541.69;;;7.88;68.90
71057;BME280;58380;48.312;9.246;2023-04-26T10:18:20;93526.25;;;7.92;64.47
71057;BME280;58380;48.312;9.246;2023-04-26T10:20:49;93546.50;;;7.74;66.60
71057;BME280;58380;48.312;9.246;2023-04-26T10:23:19;93553.00;;;7.89;68.15
71057;BME280;58380;48.312;9.246;2023-04-26T10:25:49;93509.53;;;7.81;69.16
71057;BME280;58380;48.312;9.246;2023-04-26T10:28:16;93547.06;;;7.98;62.58
71057;BME280;58380;48.312;9.246;2023-04-26T10:30:57;93541.63;;;7.83;63.68
71057;BME280;58380;48.312;9.246;2023-04-26T10:33:24;93518.97;;;7.60;65.15
71057;BME280;58380;48.312;9.246;2023-04-26T10:36:12;93545.28;;;7.82;64.84
71057;BME280;58380;48.312;9.246;2023-04-26T10:41:42;93528.75;;;8.48;61.88
71057;BME280;58380;48.312;9.246;2023-04-26T10:44:37;93530.84;;;8.46;65.18
71057;BME280;58380;48.312;9.246;2023-04-26T10:47:06;93524.66;;;8.35;66.42
71057;BME280;58380;48.312;9.246;2023-04-26T10:49:45;93515.00;;;8.40;69.01
71057;BME280;58380;48.312;9.246;2023-04-26T10:52:19;93503.94;;;8.16;63.41
71057;BME280;58380;48.312;9.246;2023-04-26T10:54:47;93530.06;;;8.06;62.81
71057;BME280;58380;48.312;9.246;2023-04-26T10:57:18;93505.22;;;7.53;63.15
71057;BME280;58380;48.312;9.246;2023-04-26T11:02:58;93510.03;;;8.00;64.88
71057;BME280;58380;48.312;9.246;2023-04-26T11:05:52;93515.66;;;8.31;65.90
71057;BME280;58380;48.312;9.246;2023-04-26T11:08:23;93519.47;;;8.40;63.54
71057;BME280;58380;48.312;9.246;2023-04-26T11:13:46;93511.59;;;8.40;64.33
71057;BME280;58380;48.312;9.246;2023-04-26T11:16:13;93525.31;;;8.69;66.41
71057;BME280;58380;48.312;9.246;2023-04-26T11:18:41;93513.88;;;8.85;69.18
71057;BME280;58380;48.312;9.246;2023-04-26T11:21:11;93501.94;;;9.05;69.00
71057;BME280;58380;48.312;9.246;2023-04-26T11:23:39;93510.78;;;9.26;66.68
71057;BME280;58380;48.312;9.246;2023-04-26T11:26:06;93505.88;;;9.40;68.08
71057;BME280;58380;48.312;9.246;2023-04-26T11:28:37;93484.94;;;9.23;59.24
71057;BME280;58380;48.312;9.246;2023-04-26T11:31:03;93486.44;;;9.09;61.50
71057;BME280;58380;48.312;9.246;2023-04-26T11:33:31;93492.41;;;9.31;66.50
71057;BME280;58380;48.312;9.246;2023-04-26T11:35:58;93498.84;;;9.50;59.47
71057;BME280;58380;48.312;9.246;2023-04-26T11:38:25;93495.75;;;9.59;63.43
71057;BME280;58380;48.312;9.246;2023-04-26T11:40:56;93495.81;;;9.74;63.83
71057;BME280;58380;48.312;9.246;2023-04-26T11:43:43;93514.56;;;9.78;59.84
71057;BME280;58380;48.312;9.246;2023-04-26T11:46:09;93509.13;;;9.52;57.26
71057;BME280;58380;48.312;9.246;2023-04-26T11:48:35;93474.09;;;9.14;58.85
71057;BME280;58380;48.312;9.246;2023-04-26T11:51:03;93481.41;;;9.07;60.99
71057;BME280;58380;48.312;9.246;2023-04-26T11:53:38;93504.28;;;9.01;62.94
71057;BME280;58380;48.312;9.246;2023-04-26T11:56:15;93489.06;;;9.09;63.71
71057;BME280;58380;48.312;9.246;2023-04-26T11:58:47;93468.66;;;8.89;61.29
71057;BME280;58380;48.312;9.246;2023-04-26T12:01:22;93490.25;;;8.96;63.93
71057;BME280;58380;48.312;9.246;2023-04-26T12:03:50;93491.75;;;9.14;65.88
71057;BME280;58380;48.312;9.246;2023-04-26T12:06:17;93494.41;;;9.19;62.63
71057;BME280;58380;48.312;9.246;2023-04-26T12:08:50;93494.59;;;9.07;58.20
71057;BME280;58380;48.312;9.246;2023-04-26T12:11:16;93488.72;;;9.00;59.67
71057;BME280;58380;48.312;9.246;2023-04-26T12:13:42;93485.34;;;8.72;57.51
71057;BME280;58380;48.312;9.246;2023-04-26T12:16:11;93472.91;;;8.40;58.04
71057;BME280;58380;48.312;9.246;2023-04-26T12:18:38;93479.84;;;8.47;61.73
71057;BME280;58380;48.312;9.246;2023-04-26T12:21:03;93463.88;;;8.58;62.84
71057;BME280;58380;48.312;9.246;2023-04-26T12:23:39;93481.09;;;9.03;61.78
71057;BME280;58380;48.312;9.246;2023-04-26T12:26:05;93460.78;;;9.31;62.56
71057;BME280;58380;48.312;9.246;2023-04-26T12:28:31;93453.66;;;9.26;60.54
71057;BME280;58380;48.312;9.246;2023-04-26T12:30:57;93472.22;;;9.47;61.58
71057;BME280;58380;48.312;9.246;2023-04-26T12:33:23;93476.91;;;9.87;61.18
71057;BME280;58380;48.312;9.246;2023-04-26T12:35:49;93473.34;;;10.14;58.90
71057;BME280;58380;48.312;9.246;2023-04-26T12:38:16;93464.34;;;10.15;56.39
71057;BME280;58380;48.312;9.246;2023-04-26T12:40:42;93466.31;;;10.40;58.80
71057;BME280;58380;48.312;9.246;2023-04-26T12:43:07;93452.25;;;10.19;57.22
71057;BME280;58380;48.312;9.246;2023-04-26T12:45:33;93438.72;;;10.00;56.44
71057;BME280;58380;48.312;9.246;2023-04-26T12:47:59;93448.25;;;10.01;57.24
71057;BME280;58380;48.312;9.246;2023-04-26T12:50:24;93440.22;;;9.81;58.75
71057;BME280;58380;48.312;9.246;2023-04-26T12:52:50;93479.91;;;10.06;59.11
71057;BME280;58380;48.312;9.246;2023-04-26T12:55:16;93445.78;;;9.79;57.07
71057;BME280;58380;48.312;9.246;2023-04-26T12:57:43;93463.09;;;9.65;56.61
71057;BME280;58380;48.312;9.246;2023-04-26T13:00:16;93477.25;;;9.48;55.13
71057;BME280;58380;48.312;9.246;2023-04-26T13:02:42;93469.00;;;9.40;58.80
71057;BME280;58380;48.312;9.246;2023-04-26T13:05:08;93476.03;;;9.71;57.34
71057;BME280;58380;48.312;9.246;2023-04-26T13:07:38;93456.63;;;9.93;61.64
71057;BME280;58380;48.312;9.246;2023-04-26T13:10:07;93460.16;;;10.14;59.55
71057;BME280;58380;48.312;9.246;2023-04-26T13:12:34;93447.44;;;10.06;59.07
71057;BME280;58380;48.312;9.246;2023-04-26T13:15:00;93441.38;;;10.05;59.58
71057;BME280;58380;48.312;9.246;2023-04-26T13:17:26;93465.06;;;9.95;62.04
71057;BME280;58380;48.312;9.246;2023-04-26T13:19:52;93456.66;;;10.03;58.95
71057;BME280;58380;48.312;9.246;2023-04-26T13:22:18;93459.38;;;10.13;58.96
71057;BME280;58380;48.312;9.246;2023-04-26T13:24:45;93447.44;;;10.06;59.86
71057;BME280;58380;48.312;9.246;2023-04-26T13:27:10;93449.28;;;10.05;59.00
71057;BME280;58380;48.312;9.246;2023-04-26T13:29:38;93422.38;;;10.03;59.31
71057;BME280;58380;48.312;9.246;2023-04-26T13:32:04;93437.25;;;10.30;59.55
71057;BME280;58380;48.312;9.246;2023-04-26T13:34:30;93454.97;;;10.34;56.11
71057;BME280;58380;48.312;9.246;2023-04-26T13:36:56;93452.97;;;9.99;54.13
71057;BME280;58380;48.312;9.246;2023-04-26T13:39:23;93423.78;;;9.58;56.79
71057;BME280;58380;48.312;9.246;2023-04-26T13:41:49;93446.56;;;9.80;58.33
71057;BME280;58380;48.312;9.246;2023-04-26T13:44:15;93461.91;;;9.98;58.85
71057;BME280;58380;48.312;9.246;2023-04-26T13:46:41;93459.09;;;10.20;60.22
71057;BME280;58380;48.312;9.246;2023-04-26T13:49:07;93440.44;;;10.32;57.64
71057;BME280;58380;48.312;9.246;2023-04-26T13:51:34;93413.47;;;10.25;53.40
71057;BME280;58380;48.312;9.246;2023-04-26T13:54:00;93441.41;;;10.21;52.70
71057;BME280;58380;48.312;9.246;2023-04-26T13:56:26;93418.59;;;9.74;53.86
71057;BME280;58380;48.312;9.246;2023-04-26T13:58:54;93446.06;;;9.93;58.07
71057;BME280;58380;48.312;9.246;2023-04-26T14:01:20;93443.19;;;9.94;54.49
71057;BME280;58380;48.312;9.246;2023-04-26T14:03:46;93419.38;;;9.74;53.52
71057;BME280;58380;48.312;9.246;2023-04-26T14:06:12;93440.00;;;9.92;56.65
71057;BME280;58380;48.312;9.246;2023-04-26T14:08:37;61853.94;;;-146.86;100.00
71057;BME280;58380;48.312;9.246;2023-04-26T14:11:03;61853.94;;;-146.86;100.00
71057;BME280;58380;48.312;9.246;2023-04-26T14:13:28;61853.94;;;-146.86;100.00
71057;BME280;58380;48.312;9.246;2023-04-26T14:15:54;61853.94;;;-146.86;100.00
71057;BME280;58380;48.312;9.246;2023-04-26T14:18:19;61853.94;;;-146.86;100.00
71057;BME280;58380;48.312;9.246;2023-04-26T14:20:45;61853.94;;;-146.86;100.00
71057;BME280;58380;48.312;9.246;2023-04-26T14:23:10;61853.94;;;-146.86;100.00
71057;BME280;58380;48.312;9.246;2023-04-26T14:25:36;61853.94;;;-146.86;100.00
71057;BME280;58380;48.312;9.246;2023-04-26T14:28:01;61853.94;;;-146.86;100.00
71057;BME280;58380;48.312;9.246;2023-04-26T14:30:27;61853.94;;;-146.86;100.00
71057;BME280;58380;48.312;9.246;2023-04-26T14:32:52;61853.94;;;-146.86;100.00
71057;BME280;58380;48.312;9.246;2023-04-26T14:35:18;61853.94;;;-146.86;100.00
71057;BME280;58380;48.312;9.246;2023-04-26T14:37:43;61853.94;;;-146.86;100.00
71057;BME280;58380;48.312;9.246;2023-04-26T14:40:10;61853.94;;;-146.86;100.00
71057;BME280;58380;48.312;9.246;2023-04-26T14:42:35;61853.94;;;-146.86;100.00
71057;BME280;58380;48.312;9.246;2023-04-26T14:45:01;61853.94;;;-146.86;100.00
71057;BME280;58380;48.312;9.246;2023-04-26T14:47:27;61853.94;;;-146.86;100.00
71057;BME280;58380;48.312;9.246;2023-04-26T14:49:53;61853.94;;;-146.86;100.00
71057;BME280;58380;48.312;9.246;2023-04-26T14:52:18;61853.94;;;-146.86;100.00
71057;BME280;58380;48.312;9.246;2023-04-26T14:54:44;61853.94;;;-146.86;100.00
71057;BME280;58380;48.312;9.246;2023-04-26T14:57:09;61853.94;;;-146.86;100.00
71057;BME280;58380;48.312;9.246;2023-04-26T14:59:35;61853.94;;;-146.86;100.00
71057;BME280;58380;48.312;9.246;2023-04-26T15:02:01;61853.94;;;-146.86;100.00
71057;BME280;58380;48.312;9.246;2023-04-26T15:04:28;61853.94;;;-146.86;100.00
71057;BME280;58380;48.312;9.246;2023-04-26T15:06:53;61853.94;;;-146.86;100.00
71057;BME280;58380;48.312;9.246;2023-04-26T15:09:18;61853.94;;;-146.86;100.00
71057;BME280;58380;48.312;9.246;2023-04-26T15:11:44;61853.94;;;-146.86;100.00
71057;BME280;58380;48.312;9.246;2023-04-26T15:14:10;61853.94;;;-146.86;100.00
71057;BME280;58380;48.312;9.246;2023-04-26T15:16:35;61853.94;;;-146.86;100.00
71057;BME280;58380;48.312;9.246;2023-04-26T15:19:01;61853.94;;;-146.86;100.00
71057;BME280;58380;48.312;9.246;2023-04-26T15:21:26;61853.94;;;-146.86;100.00
71057;BME280;58380;48.312;9.246;2023-04-26T15:23:53;61853.94;;;-146.86;100.00
71057;BME280;58380;48.312;9.246;2023-04-26T15:26:18;61853.94;;;-146.86;100.00
71057;BME280;58380;48.312;9.246;2023-04-26T15:28:43;61853.94;;;-146.86;100.00
71057;BME280;58380;48.312;9.246;2023-04-26T15:31:09;61853.94;;;-146.86;100.00
71057;BME280;58380;48.312;9.246;2023-04-26T15:33:35;61853.94;;;-146.86;100.00
71057;BME280;58380;48.312;9.246;2023-04-26T15:36:01;61853.94;;;-146.86;100.00
71057;BME280;58380;48.312;9.246;2023-04-26T15:38:26;61853.94;;;-146.86;100.00
71057;BME280;58380;48.312;9.246;2023-04-26T15:40:52;61853.94;;;-146.86;100.00
71057;BME280;58380;48.312;9.246;2023-04-26T15:43:20;61853.94;;;-146.86;100.00
71057;BME280;58380;48.312;9.246;2023-04-26T15:45:45;61853.94;;;-146.86;100.00
71057;BME280;58380;48.312;9.246;2023-04-26T15:48:11;61853.94;;;-146.86;100.00
71057;BME280;58380;48.312;9.246;2023-04-26T15:50:36;61853.94;;;-146.86;100.00
71057;BME280;58380;48.312;9.246;2023-04-26T15:53:02;61853.94;;;-146.86;100.00
71057;BME280;58380;48.312;9.246;2023-04-26T15:55:27;61853.94;;;-146.86;100.00
71057;BME280;58380;48.312;9.246;2023-04-26T15:57:55;61853.94;;;-146.86;100.00
71057;BME280;58380;48.312;9.246;2023-04-26T16:00:21;61853.94;;;-146.86;100.00
71057;BME280;58380;48.312;9.246;2023-04-26T16:02:46;61853.94;;;-146.86;100.00
71057;BME280;58380;48.312;9.246;2023-04-26T16:05:11;61853.94;;;-146.86;100.00
71057;BME280;58380;48.312;9.246;2023-04-26T16:07:37;61853.94;;;-146.86;100.00
71057;BME280;58380;48.312;9.246;2023-04-26T16:10:06;61853.94;;;-146.86;100.00
71057;BME280;58380;48.312;9.246;2023-04-26T16:12:33;61853.94;;;-146.86;100.00
71057;BME280;58380;48.312;9.246;2023-04-26T16:15:00;61853.94;;;-146.86;100.00
71057;BME280;58380;48.312;9.246;2023-04-26T16:17:26;61853.94;;;-146.86;100.00
71057;BME280;58380;48.312;9.246;2023-04-26T16:19:51;61853.94;;;-146.86;100.00
71057;BME280;58380;48.312;9.246;2023-04-26T16:22:16;61853.94;;;-146.86;100.00
71057;BME280;58380;48.312;9.246;2023-04-26T16:24:42;61853.94;;;-146.86;100.00
71057;BME280;58380;48.312;9.246;2023-04-26T16:27:07;61853.94;;;-146.86;100.00
71057;BME280;58380;48.312;9.246;2023-04-26T16:29:33;61853.94;;;-146.86;100.00
71057;BME280;58380;48.312;9.246;2023-04-26T16:31:58;61853.94;;;-146.86;100.00
71057;BME280;58380;48.312;9.246;2023-04-26T16:34:24;61853.94;;;-146.86;100.00
71057;BME280;58380;48.312;9.246;2023-04-26T16:36:50;61853.94;;;-146.86;100.00
71057;BME280;58380;48.312;9.246;2023-04-26T16:39:16;61853.94;;;-146.86;100.00
71057;BME280;58380;48.312;9.246;2023-04-26T16:41:41;61853.94;;;-146.86;100.00
71057;BME280;58380;48.312;9.246;2023-04-26T16:44:06;61853.94;;;-146.86;100.00
71057;BME280;58380;48.312;9.246;2023-04-26T16:46:32;61853.94;;;-146.86;100.00
71057;BME280;58380;48.312;9.246;2023-04-26T16:48:57;61853.94;;;-146.86;100.00
71057;BME280;58380;48.312;9.246;2023-04-26T16:51:22;61853.94;;;-146.86;100.00
71057;BME280;58380;48.312;9.246;2023-04-26T16:53:48;61853.94;;;-146.86;100.00
71057;BME280;58380;48.312;9.246;2023-04-26T16:56:14;61853.94;;;-146.86;100.00
71057;BME280;58380;48.312;9.246;2023-04-26T16:58:39;61853.94;;;-146.86;100.00
71057;BME280;58380;48.312;9.246;2023-04-26T17:01:04;61853.94;;;-146.86;100.00
71057;BME280;58380;48.312;9.246;2023-04-26T17:03:30;61853.94;;;-146.86;100.00
71057;BME280;58380;48.312;9.246;2023-04-26T17:05:55;61853.94;;;-146.86;100.00
71057;BME280;58380;48.312;9.246;2023-04-26T17:08:21;61853.94;;;-146.86;100.00
71057;BME280;58380;48.312;9.246;2023-04-26T17:10:46;61853.94;;;-146.86;100.00
71057;BME280;58380;48.312;9.246;2023-04-26T17:13:12;61853.94;;;-146.86;100.00
71057;BME280;58380;48.312;9.246;2023-04-26T17:15:38;61853.94;;;-146.86;100.00
71057;BME280;58380;48.312;9.246;2023-04-26T17:18:06;61853.94;;;-146.86;100.00
71057;BME280;58380;48.312;9.246;2023-04-26T17:20:33;61853.94;;;-146.86;100.00
71057;BME280;58380;48.312;9.246;2023-04-26T17:22:59;61853.94;;;-146.86;100.00
71057;BME280;58380;48.312;9.246;2023-04-26T17:25:25;61853.94;;;-146.86;100.00
71057;BME280;58380;48.312;9.246;2023-04-26T17:27:51;61853.94;;;-146.86;100.00
71057;BME280;58380;48.312;9.246;2023-04-26T17:30:17;61853.94;;;-146.86;100.00
71057;BME280;58380;48.312;9.246;2023-04-26T17:32:43;61853.94;;;-146.86;100.00
71057;BME280;58380;48.312;9.246;2023-04-26T17:35:08;61853.94;;;-146.86;100.00
71057;BME280;58380;48.312;9.246;2023-04-26T17:37:33;61853.94;;;-146.86;100.00
71057;BME280;58380;48.312;9.246;2023-04-26T17:39:59;61853.94;;;-146.86;100.00
71057;BME280;58380;48.312;9.246;2023-04-26T17:42:24;61853.94;;;-146.86;100.00
71057;BME280;58380;48.312;9.246;2023-04-26T17:44:50;61853.94;;;-146.86;100.00
71057;BME280;58380;48.312;9.246;2023-04-26T17:47:15;61853.94;;;-146.86;100.00
71057;BME280;58380;48.312;9.246;2023-04-26T17:49:41;61853.94;;;-146.86;100.00
71057;BME280;58380;48.312;9.246;2023-04-26T17:52:06;61853.94;;;-146.86;100.00
71057;BME280;58380;48.312;9.246;2023-04-26T17:54:32;61853.94;;;-146.86;100.00
71057;BME280;58380;48.312;9.246;2023-04-26T17:56:57;61853.94;;;-146.86;100.00
71057;BME280;58380;48.312;9.246;2023-04-26T17:59:22;61853.94;;;-146.86;100.00
71057;BME280;58380;48.312;9.246;2023-04-26T18:01:48;61853.94;;;-146.86;100.00
71057;BME280;58380;48.312;9.246;2023-04-26T18:04:13;61853.94;;;-146.86;100.00
71057;BME280;58380;48.312;9.246;2023-04-26T18:06:38;61853.94;;;-146.86;100.00
71057;BME280;58380;48.312;9.246;2023-04-26T18:09:04;61853.94;;;-146.86;100.00
71057;BME280;58380;48.312;9.246;2023-04-26T18:11:30;61853.94;;;-146.86;100.00
71057;BME280;58380;48.312;9.246;2023-04-26T18:13:55;61853.94;;;-146.86;100.00
71057;BME280;58380;48.312;9.246;2023-04-26T18:16:21;61853.94;;;-146.86;100.00
71057;BME280;58380;48.312;9.246;2023-04-26T18:18:46;61853.94;;;-146.86;100.00
71057;BME280;58380;48.312;9.246;2023-04-26T18:21:12;61853.94;;;-146.86;100.00
71057;BME280;58380;48.312;9.246;2023-04-26T18:23:37;61853.94;;;-146.86;100.00
71057;BME280;58380;48.312;9.246;2023-04-26T18:26:03;61853.94;;;-146.86;100.00
71057;BME280;58380;48.312;9.246;2023-04-26T18:28:28;61853.94;;;-146.86;100.00
71057;BME280;58380;48.312;9.246;2023-04-26T18:30:59;61853.94;;;-146.86;100.00
71057;BME280;58380;48.312;9.246;2023-04-26T18:33:27;61853.94;;;-146.86;100.00
71057;BME280;58380;48.312;9.246;2023-04-26T18:35:52;61853.94;;;-146.86;100.00
71057;BME280;58380;48.312;9.246;2023-04-26T18:38:18;61853.94;;;-146.86;100.00
71057;BME280;58380;48.312;9.246;2023-04-26T18:40:44;61853.94;;;-146.86;100.00
71057;BME280;58380;48.312;9.246;2023-04-26T18:43:10;61853.94;;;-146.86;100.00
71057;BME280;58380;48.312;9.246;2023-04-26T18:45:36;61853.94;;;-146.86;100.00
71057;BME280;58380;48.312;9.246;2023-04-26T18:48:02;61853.94;;;-146.86;100.00
71057;BME280;58380;48.312;9.246;2023-04-26T18:50:27;61853.94;;;-146.86;100.00
71057;BME280;58380;48.312;9.246;2023-04-26T18:52:52;61853.94;;;-146.86;100.00
71057;BME280;58380;48.312;9.246;2023-04-26T18:56:53;93496.97;;;7.44;75.83
71057;BME280;58380;48.312;9.246;2023-04-26T18:59:18;93451.34;;;6.95;76.64
71057;BME280;58380;48.312;9.246;2023-04-26T19:01:44;93477.41;;;7.01;77.72
71057;BME280;58380;48.312;9.246;2023-04-26T19:04:09;93474.63;;;6.91;80.48
71057;BME280;58380;48.312;9.246;2023-04-26T19:06:34;93468.13;;;6.77;79.14
71057;BME280;58380;48.312;9.246;2023-04-26T19:09:00;93487.28;;;6.77;76.11
71057;BME280;58380;48.312;9.246;2023-04-26T19:11:26;93441.94;;;6.48;78.00
71057;BME280;58380;48.312;9.246;2023-04-26T19:13:52;93524.72;;;6.89;78.28
71057;BME280;58380;48.312;9.246;2023-04-26T19:16:17;93527.59;;;6.88;77.41
71057;BME280;58380;48.312;9.246;2023-04-26T19:18:42;93460.78;;;6.45;77.93
71057;BME280;58380;48.312;9.246;2023-04-26T19:21:09;93504.19;;;6.69;79.77
71057;BME280;58380;48.312;9.246;2023-04-26T19:23:35;93551.03;;;6.78;79.74
71057;BME280;58380;48.312;9.246;2023-04-26T19:26:06;93491.66;;;6.43;79.74
71057;BME280;58380;48.312;9.246;2023-04-26T19:28:33;93529.78;;;6.62;79.63
71057;BME280;58380;48.312;9.246;2023-04-26T19:31:00;93566.28;;;6.81;78.82
71057;BME280;58380;48.312;9.246;2023-04-26T19:33:26;93571.88;;;6.84;79.53
71057;BME280;58380;48.312;9.246;2023-04-26T19:35:52;93562.22;;;6.73;80.65
71057;BME280;58380;48.312;9.246;2023-04-26T19:38:18;93570.09;;;6.73;80.11
71057;BME280;58380;48.312;9.246;2023-04-26T19:40:44;93550.88;;;6.56;81.36
71057;BME280;58380;48.312;9.246;2023-04-26T19:43:10;93572.53;;;6.63;80.12
71057;BME280;58380;48.312;9.246;2023-04-26T19:45:36;93568.88;;;6.64;79.91
71057;BME280;58380;48.312;9.246;2023-04-26T19:48:03;93582.78;;;6.64;80.92
71057;BME280;58380;48.312;9.246;2023-04-26T19:50:29;93576.53;;;6.54;81.96
71057;BME280;58380;48.312;9.246;2023-04-26T19:52:55;93517.41;;;6.17;82.07
71057;BME280;58380;48.312;9.246;2023-04-26T19:55:20;93568.97;;;6.40;83.41
71057;BME280;58380;48.312;9.246;2023-04-26T19:57:46;93552.16;;;6.24;84.31
71057;BME280;58380;48.312;9.246;2023-04-26T20:00:12;93584.59;;;6.35;83.89
71057;BME280;58380;48.312;9.246;2023-04-26T20:02:39;93552.06;;;6.19;84.66
71057;BME280;58380;48.312;9.246;2023-04-26T20:05:05;93562.75;;;6.18;84.38
71057;BME280;58380;48.312;9.246;2023-04-26T20:07:31;93571.81;;;6.39;84.22
71057;BME280;58380;48.312;9.246;2023-04-26T20:09:56;93547.63;;;6.08;84.69
71057;BME280;58380;48.312;9.246;2023-04-26T20:12:22;93542.28;;;6.03;84.26
71057;BME280;58380;48.312;9.246;2023-04-26T20:14:48;93594.88;;;6.25;84.48
71057;BME280;58380;48.312;9.246;2023-04-26T20:17:13;93579.53;;;6.05;84.31
71057;BME280;58380;48.312;9.246;2023-04-26T20:19:39;93552.34;;;5.94;84.55
71057;BME280;58380;48.312;9.246;2023-04-26T20:22:05;93548.44;;;5.85;85.82
71057;BME280;58380;48.312;9.246;2023-04-26T20:24:30;93545.03;;;5.73;87.06
71057;BME280;58380;48.312;9.246;2023-04-26T20:26:57;93601.75;;;6.02;87.87
71057;BME280;58380;48.312;9.246;2023-04-26T20:29:22;93559.59;;;5.69;88.46
71057;BME280;58380;48.312;9.246;2023-04-26T20:31:48;93597.16;;;5.86;87.72
71057;BME280;58380;48.312;9.246;2023-04-26T20:34:13;93592.03;;;5.91;86.95
71057;BME280;58380;48.312;9.246;2023-04-26T20:36:39;93572.00;;;5.73;87.21
71057;BME280;58380;48.312;9.246;2023-04-26T20:39:05;93595.81;;;5.83;87.73
71057;BME280;58380;48.312;9.246;2023-04-26T20:41:32;93585.69;;;5.75;88.96
71057;BME280;58380;48.312;9.246;2023-04-26T20:43:58;93610.72;;;5.83;88.98
71057;BME280;58380;48.312;9.246;2023-04-26T20:46:23;93594.09;;;5.66;88.82
71057;BME280;58380;48.312;9.246;2023-04-26T20:48:48;93561.66;;;5.43;88.59
71057;BME280;58380;48.312;9.246;2023-04-26T20:51:14;93609.59;;;5.79;89.01